createdAt,value
2018-08-31T00:02:04.017Z,13.80
2018-08-31T00:04:44.333Z,13.70
2018-08-31T00:08:40.209Z,13.70
2018-08-31T00:11:21.264Z,13.70
2018-08-31T00:13:50.150Z,13.60
2018-08-31T00:16:18.712Z,13.60
2018-08-31T00:18:47.422Z,13.60
2018-08-31T00:21:15.972Z,13.60
2018-08-31T00:23:55.920Z,13.60
2018-08-31T00:26:35.652Z,13.50
2018-08-31T00:29:50.041Z,13.40
2018-08-31T00:33:50.236Z,13.40
2018-08-31T00:37:36.809Z,13.30
2018-08-31T00:40:14.748Z,13.20
2018-08-31T00:43:58.610Z,13.10
2018-08-31T00:46:27.133Z,13.10
2018-08-31T00:48:55.629Z,13.10
2018-08-31T00:51:24.402Z,13.10
2018-08-31T00:53:52.866Z,13.10
2018-08-31T00:56:21.685Z,13.10
2018-08-31T00:58:50.185Z,13.10
2018-08-31T01:01:18.691Z,13.10
2018-08-31T01:03:47.201Z,13.10
2018-08-31T01:06:16.096Z,13.10
2018-08-31T01:08:45.049Z,13.10
2018-08-31T01:11:13.538Z,13.10
2018-08-31T01:13:42.539Z,13.10
2018-08-31T01:16:11.047Z,13.10
2018-08-31T01:18:40.625Z,13.00
2018-08-31T01:21:09.178Z,13.00
2018-08-31T01:23:37.820Z,13.00
2018-08-31T01:26:06.468Z,13.00
2018-08-31T01:28:35.010Z,13.00
2018-08-31T01:31:03.622Z,13.00
2018-08-31T01:33:32.407Z,13.00
2018-08-31T01:36:01.619Z,13.00
2018-08-31T01:38:30.142Z,13.00
2018-08-31T01:40:58.656Z,13.00
2018-08-31T01:43:27.491Z,13.00
2018-08-31T01:45:56.052Z,13.00
2018-08-31T01:48:24.759Z,13.00
2018-08-31T01:50:58.718Z,13.00
2018-08-31T01:53:29.220Z,13.00
2018-08-31T01:55:57.869Z,12.90
2018-08-31T01:58:26.402Z,12.90
2018-08-31T02:00:54.992Z,12.90
2018-08-31T02:03:24.313Z,12.90
2018-08-31T02:05:52.826Z,12.90
2018-08-31T02:08:21.357Z,12.90
2018-08-31T02:10:50.411Z,12.90
2018-08-31T02:13:19.616Z,12.90
2018-08-31T02:15:48.132Z,12.90
2018-08-31T02:18:16.641Z,12.90
2018-08-31T02:20:45.169Z,12.80
2018-08-31T02:23:13.740Z,12.80
2018-08-31T02:25:42.632Z,12.80
2018-08-31T02:28:11.452Z,12.80
2018-08-31T02:30:40.299Z,12.80
2018-08-31T02:33:09.081Z,12.70
2018-08-31T02:35:38.100Z,12.70
2018-08-31T02:38:07.310Z,12.70
2018-08-31T02:40:36.389Z,12.70
2018-08-31T02:43:05.360Z,12.60
2018-08-31T02:45:33.962Z,12.60
2018-08-31T02:48:02.566Z,12.60
2018-08-31T02:50:31.497Z,12.60
2018-08-31T02:53:00.265Z,12.60
2018-08-31T02:55:28.736Z,12.50
2018-08-31T02:57:57.443Z,12.50
2018-08-31T03:00:26.032Z,12.50
2018-08-31T03:02:54.652Z,12.50
2018-08-31T03:05:23.217Z,12.50
2018-08-31T03:07:51.850Z,12.40
2018-08-31T03:10:20.434Z,12.40
2018-08-31T03:12:49.492Z,12.40
2018-08-31T03:15:18.113Z,12.40
2018-08-31T03:17:47.162Z,12.40
2018-08-31T03:20:15.760Z,12.40
2018-08-31T03:22:44.356Z,12.40
2018-08-31T03:25:12.990Z,12.30
2018-08-31T03:27:42.302Z,12.30
2018-08-31T03:30:10.830Z,12.40
2018-08-31T03:32:39.644Z,12.30
2018-08-31T03:35:08.374Z,12.30
2018-08-31T03:37:37.000Z,12.30
2018-08-31T03:40:05.907Z,12.30
2018-08-31T03:42:35.009Z,12.30
2018-08-31T03:45:04.191Z,12.30
2018-08-31T03:47:32.832Z,12.40
2018-08-31T03:50:01.454Z,12.30
2018-08-31T03:52:30.480Z,12.30
2018-08-31T03:54:59.024Z,12.30
2018-08-31T03:57:27.589Z,12.30
2018-08-31T03:59:56.217Z,12.30
2018-08-31T04:02:25.873Z,12.30
2018-08-31T04:04:54.631Z,12.20
2018-08-31T04:07:23.356Z,12.20
2018-08-31T04:09:52.253Z,12.20
2018-08-31T04:12:20.794Z,12.20
2018-08-31T04:14:49.420Z,12.20
2018-08-31T04:17:18.731Z,12.10
2018-08-31T04:19:47.729Z,12.20
2018-08-31T04:22:16.195Z,12.20
2018-08-31T04:24:44.785Z,12.20
2018-08-31T04:27:13.546Z,12.10
2018-08-31T04:29:42.900Z,12.20
2018-08-31T04:32:12.055Z,12.20
2018-08-31T04:34:41.821Z,12.20
2018-08-31T04:37:10.571Z,12.20
2018-08-31T04:39:39.422Z,12.20
2018-08-31T04:42:08.076Z,12.20
2018-08-31T04:44:36.668Z,12.20
2018-08-31T04:47:05.444Z,12.20
2018-08-31T04:49:34.108Z,12.20
2018-08-31T04:52:02.639Z,12.20
2018-08-31T04:54:31.217Z,12.20
2018-08-31T04:57:00.269Z,12.10
2018-08-31T04:59:28.889Z,12.10
2018-08-31T05:01:57.436Z,12.10
2018-08-31T05:04:26.056Z,12.10
2018-08-31T05:06:54.768Z,12.10
2018-08-31T05:09:23.332Z,12.10
2018-08-31T05:11:52.264Z,12.10
2018-08-31T05:14:21.488Z,12.00
2018-08-31T05:16:50.032Z,12.00
2018-08-31T05:19:18.567Z,11.90
2018-08-31T05:21:47.181Z,11.90
2018-08-31T05:24:15.830Z,11.90
2018-08-31T05:26:44.820Z,11.90
2018-08-31T05:29:13.758Z,11.80
2018-08-31T05:31:42.332Z,11.80
2018-08-31T05:34:11.204Z,11.80
2018-08-31T05:36:40.779Z,11.80
2018-08-31T05:39:10.825Z,11.80
2018-08-31T05:41:39.905Z,11.80
2018-08-31T05:44:08.715Z,11.80
2018-08-31T05:46:37.482Z,11.90
2018-08-31T05:49:06.049Z,11.90
2018-08-31T05:51:35.182Z,11.90
2018-08-31T05:54:03.888Z,12.00
2018-08-31T05:56:33.047Z,12.00
2018-08-31T05:59:02.449Z,12.00
2018-08-31T06:01:31.094Z,12.10
2018-08-31T06:04:00.109Z,12.10
2018-08-31T06:06:28.712Z,12.20
2018-08-31T06:08:58.181Z,12.10
2018-08-31T06:11:26.753Z,12.20
2018-08-31T06:13:55.352Z,12.20
2018-08-31T06:16:24.062Z,12.30
2018-08-31T06:18:52.660Z,12.20
2018-08-31T06:21:21.259Z,12.20
2018-08-31T06:23:49.821Z,12.30
2018-08-31T06:26:18.412Z,12.30
2018-08-31T06:28:47.562Z,12.40
2018-08-31T06:31:16.125Z,12.40
2018-08-31T06:33:44.699Z,12.50
2018-08-31T06:36:13.236Z,12.60
2018-08-31T06:38:41.795Z,12.60
2018-08-31T06:41:10.795Z,12.70
2018-08-31T06:43:39.783Z,12.80
2018-08-31T06:46:08.366Z,12.80
2018-08-31T06:48:36.961Z,12.90
2018-08-31T06:51:05.899Z,12.90
2018-08-31T06:53:34.949Z,13.00
2018-08-31T06:56:03.616Z,13.00
2018-08-31T06:58:32.493Z,13.10
2018-08-31T07:01:01.104Z,13.10
2018-08-31T07:03:29.920Z,13.20
2018-08-31T07:05:58.570Z,13.30
2018-08-31T07:08:27.092Z,13.40
2018-08-31T07:10:55.674Z,13.50
2018-08-31T07:13:24.205Z,13.60
2018-08-31T07:15:52.850Z,13.60
2018-08-31T07:18:21.514Z,13.80
2018-08-31T07:20:50.363Z,13.90
2018-08-31T07:23:18.943Z,14.00
2018-08-31T07:25:47.551Z,14.20
2018-08-31T07:28:16.174Z,14.30
2018-08-31T07:30:44.905Z,14.50
2018-08-31T07:33:13.788Z,14.60
2018-08-31T07:35:42.438Z,14.80
2018-08-31T07:38:11.106Z,14.80
2018-08-31T07:40:40.687Z,14.90
2018-08-31T07:43:09.467Z,14.90
2018-08-31T07:45:39.105Z,15.00
2018-08-31T07:48:07.772Z,15.20
2018-08-31T07:50:36.916Z,15.20
2018-08-31T07:53:05.759Z,15.20
2018-08-31T07:55:34.348Z,15.30
2018-08-31T07:58:03.928Z,15.30
2018-08-31T08:00:32.665Z,15.40
2018-08-31T08:03:01.387Z,15.40
2018-08-31T08:05:30.013Z,15.40
2018-08-31T08:07:58.957Z,15.50
2018-08-31T08:10:27.576Z,15.60
2018-08-31T08:12:56.152Z,15.60
2018-08-31T08:15:24.710Z,15.60
2018-08-31T08:17:53.720Z,15.70
2018-08-31T08:20:22.473Z,15.80
2018-08-31T08:22:51.008Z,15.90
2018-08-31T08:25:19.573Z,16.00
2018-08-31T08:27:48.179Z,16.10
2018-08-31T08:30:17.143Z,16.10
2018-08-31T08:32:46.623Z,16.10
2018-08-31T08:35:15.317Z,16.20
2018-08-31T08:37:43.917Z,16.20
2018-08-31T08:40:12.911Z,16.30
2018-08-31T08:42:41.582Z,16.40
2018-08-31T08:45:10.637Z,16.50
2018-08-31T08:47:40.802Z,16.50
2018-08-31T08:50:09.416Z,16.50
2018-08-31T08:52:38.170Z,16.60
2018-08-31T08:55:07.180Z,16.60
2018-08-31T08:57:35.830Z,16.60
2018-08-31T09:00:04.544Z,16.60
2018-08-31T09:02:33.262Z,16.60
2018-08-31T09:05:01.846Z,16.50
2018-08-31T09:07:30.426Z,16.50
2018-08-31T09:09:59.078Z,16.50
2018-08-31T09:12:28.390Z,16.40
2018-08-31T09:14:57.126Z,16.40
2018-08-31T09:17:25.667Z,16.30
2018-08-31T09:19:54.228Z,16.20
2018-08-31T09:22:22.967Z,16.30
2018-08-31T09:24:51.508Z,16.40
2018-08-31T09:27:20.221Z,16.40
2018-08-31T09:29:48.849Z,16.40
2018-08-31T09:32:22.847Z,16.40
2018-08-31T09:34:52.290Z,16.50
2018-08-31T09:37:20.946Z,16.60
2018-08-31T09:39:50.061Z,16.80
2018-08-31T09:42:18.864Z,17.10
2018-08-31T09:44:47.508Z,17.40
2018-08-31T09:47:16.368Z,17.70
2018-08-31T09:49:45.746Z,17.90
2018-08-31T09:52:15.959Z,17.90
2018-08-31T09:54:45.042Z,17.80
2018-08-31T09:57:13.936Z,17.70
2018-08-31T09:59:43.123Z,17.60
2018-08-31T10:02:15.875Z,17.60
2018-08-31T10:04:45.600Z,17.60
2018-08-31T10:07:17.466Z,17.60
2018-08-31T10:09:46.011Z,17.50
2018-08-31T10:12:14.638Z,17.50
2018-08-31T10:14:43.915Z,17.40
2018-08-31T10:17:12.852Z,17.40
2018-08-31T10:19:41.465Z,17.50
2018-08-31T10:22:10.276Z,17.40
2018-08-31T10:24:39.231Z,17.40
2018-08-31T10:27:08.563Z,17.50
2018-08-31T10:29:37.267Z,17.60
2018-08-31T10:32:06.678Z,17.60
2018-08-31T10:34:35.446Z,17.60
2018-08-31T10:37:04.308Z,17.60
2018-08-31T10:39:33.830Z,17.60
2018-08-31T10:42:02.735Z,17.60
2018-08-31T10:44:31.376Z,17.50
2018-08-31T10:46:59.906Z,17.70
2018-08-31T10:49:28.459Z,17.80
2018-08-31T10:51:57.567Z,17.90
2018-08-31T10:54:26.283Z,18.10
2018-08-31T10:56:55.112Z,18.30
2018-08-31T10:59:23.820Z,18.50
2018-08-31T11:01:53.058Z,18.50
2018-08-31T11:04:21.804Z,18.40
2018-08-31T11:06:50.403Z,18.40
2018-08-31T11:09:19.553Z,18.40
2018-08-31T11:11:48.058Z,18.40
2018-08-31T11:14:16.634Z,18.50
2018-08-31T11:16:45.563Z,18.50
2018-08-31T11:19:14.172Z,18.60
2018-08-31T11:21:42.853Z,18.80
2018-08-31T11:24:11.604Z,18.90
2018-08-31T11:26:40.412Z,19.00
2018-08-31T11:29:09.068Z,19.10
2018-08-31T11:31:44.615Z,19.40
2018-08-31T11:34:13.363Z,19.50
2018-08-31T11:36:41.960Z,19.70
2018-08-31T11:39:11.559Z,19.90
2018-08-31T11:41:40.557Z,20.10
2018-08-31T11:44:09.481Z,20.00
2018-08-31T11:46:38.078Z,20.00
2018-08-31T11:49:06.627Z,19.90
2018-08-31T11:51:35.883Z,20.00
2018-08-31T11:54:04.481Z,20.00
2018-08-31T11:56:33.027Z,20.10
2018-08-31T11:59:01.594Z,20.00
2018-08-31T12:01:30.984Z,20.00
2018-08-31T12:03:59.403Z,20.10
2018-08-31T12:06:27.973Z,20.20
2018-08-31T12:08:56.516Z,20.30
2018-08-31T12:11:25.047Z,20.40
2018-08-31T12:13:53.920Z,20.40
2018-08-31T12:16:22.460Z,20.40
2018-08-31T12:18:51.058Z,20.40
2018-08-31T12:21:20.244Z,20.40
2018-08-31T12:23:48.925Z,20.30
2018-08-31T12:26:17.686Z,20.40
2018-08-31T12:28:47.136Z,20.40
2018-08-31T12:31:16.222Z,20.40
2018-08-31T12:33:47.645Z,20.30
2018-08-31T12:36:16.361Z,20.20
2018-08-31T12:38:45.265Z,20.20
2018-08-31T12:41:13.805Z,20.10
2018-08-31T12:43:42.751Z,20.00
2018-08-31T12:46:12.174Z,19.90
2018-08-31T12:48:41.629Z,19.90
2018-08-31T12:51:11.047Z,19.70
2018-08-31T12:53:40.536Z,19.70
2018-08-31T12:56:09.877Z,19.70
2018-08-31T12:58:38.875Z,19.70
2018-08-31T13:01:08.974Z,20.00
2018-08-31T13:03:37.643Z,20.30
2018-08-31T13:06:06.280Z,20.50
2018-08-31T13:08:34.832Z,20.50
2018-08-31T13:11:03.454Z,20.40
2018-08-31T13:13:32.039Z,20.40
2018-08-31T13:16:01.022Z,20.30
2018-08-31T13:18:30.061Z,20.50
2018-08-31T13:20:58.663Z,20.70
2018-08-31T13:23:27.315Z,21.10
2018-08-31T13:25:55.941Z,21.30
2018-08-31T13:28:24.532Z,21.50
2018-08-31T13:30:54.222Z,21.60
2018-08-31T13:33:22.922Z,21.70
2018-08-31T13:35:52.174Z,21.50
2018-08-31T13:38:21.099Z,21.70
2018-08-31T13:40:49.648Z,21.90
2018-08-31T13:43:18.181Z,22.20
2018-08-31T13:45:46.728Z,22.20
2018-08-31T13:48:15.229Z,22.00
2018-08-31T13:50:44.032Z,22.10
2018-08-31T13:53:15.422Z,22.10
2018-08-31T13:55:43.976Z,22.10
2018-08-31T13:58:12.503Z,22.20
2018-08-31T14:00:41.213Z,22.10
2018-08-31T14:03:09.797Z,22.10
2018-08-31T14:05:38.721Z,21.90
2018-08-31T14:08:07.269Z,21.80
2018-08-31T14:10:35.827Z,21.60
2018-08-31T14:13:04.923Z,21.40
2018-08-31T14:15:34.534Z,21.20
2018-08-31T14:18:03.915Z,21.00
2018-08-31T14:20:32.553Z,20.90
2018-08-31T14:23:01.155Z,20.90
2018-08-31T14:25:29.672Z,20.90
2018-08-31T14:27:58.393Z,20.80
2018-08-31T14:30:26.929Z,20.90
2018-08-31T14:32:55.498Z,20.80
2018-08-31T14:35:24.098Z,20.80
2018-08-31T14:37:52.593Z,20.70
2018-08-31T14:40:21.398Z,20.70
2018-08-31T14:42:49.921Z,20.80
2018-08-31T14:45:18.478Z,20.90
2018-08-31T14:47:47.575Z,21.10
2018-08-31T14:50:17.289Z,21.00
2018-08-31T14:52:45.891Z,21.00
2018-08-31T14:55:14.950Z,20.90
2018-08-31T14:57:44.073Z,20.80
2018-08-31T15:00:14.218Z,20.70
2018-08-31T15:02:43.169Z,21.00
2018-08-31T15:05:11.754Z,21.40
2018-08-31T15:07:41.187Z,21.40
2018-08-31T15:10:12.843Z,21.30
2018-08-31T15:12:42.248Z,21.20
2018-08-31T15:15:11.012Z,21.00
2018-08-31T15:17:40.556Z,20.90
2018-08-31T15:20:10.303Z,20.80
2018-08-31T15:22:39.650Z,20.70
2018-08-31T15:25:08.334Z,20.60
2018-08-31T15:27:39.108Z,20.60
2018-08-31T15:30:08.871Z,20.50
2018-08-31T15:32:38.054Z,20.50
2018-08-31T15:37:42.160Z,20.40
2018-08-31T15:40:10.809Z,20.40
2018-08-31T15:42:40.116Z,20.40
2018-08-31T15:45:09.617Z,20.40
2018-08-31T15:47:39.053Z,20.40
2018-08-31T15:50:08.093Z,20.30
2018-08-31T15:52:36.679Z,20.20
2018-08-31T15:55:05.565Z,20.20
2018-08-31T15:57:34.199Z,20.10
2018-08-31T16:00:04.586Z,20.10
2018-08-31T16:02:33.342Z,20.10
2018-08-31T16:05:02.048Z,19.90
2018-08-31T16:07:30.692Z,19.90
2018-08-31T16:09:59.235Z,19.80
2018-08-31T16:12:27.773Z,19.80
2018-08-31T16:14:58.618Z,19.70
2018-08-31T16:17:28.447Z,19.60
2018-08-31T16:19:58.189Z,19.60
2018-08-31T16:22:26.901Z,19.50
2018-08-31T16:24:55.478Z,19.40
2018-08-31T16:27:26.926Z,19.40
2018-08-31T16:29:55.579Z,19.30
2018-08-31T16:32:25.458Z,19.30
2018-08-31T16:34:56.482Z,19.30
2018-08-31T16:37:26.128Z,19.30
2018-08-31T16:39:55.167Z,19.30
2018-08-31T16:42:24.609Z,19.30
2018-08-31T16:44:54.797Z,19.30
2018-08-31T16:47:25.460Z,19.30
2018-08-31T16:49:55.658Z,19.30
2018-08-31T16:52:26.425Z,19.30
2018-08-31T16:54:56.577Z,19.20
2018-08-31T16:57:28.401Z,19.20
2018-08-31T16:59:58.967Z,19.10
2018-08-31T17:02:28.741Z,19.10
2018-08-31T17:04:59.549Z,19.00
2018-08-31T17:07:31.147Z,18.90
2018-08-31T17:10:04.014Z,18.90
2018-08-31T17:12:34.446Z,18.90
2018-08-31T17:15:10.340Z,18.90
2018-08-31T17:17:38.901Z,19.00
2018-08-31T17:20:08.021Z,19.10
2018-08-31T17:22:37.226Z,19.30
2018-08-31T17:25:07.777Z,19.40
2018-08-31T17:27:41.713Z,19.40
2018-08-31T17:30:15.595Z,19.30
2018-08-31T17:32:50.141Z,19.30
2018-08-31T17:35:26.015Z,19.20
2018-08-31T17:37:56.374Z,19.10
2018-08-31T17:40:25.109Z,19.00
2018-08-31T17:42:53.852Z,18.90
2018-08-31T17:45:24.186Z,18.90
2018-08-31T17:47:53.120Z,18.80
2018-08-31T17:50:22.284Z,18.70
2018-08-31T17:52:50.869Z,18.50
2018-08-31T17:55:19.596Z,18.40
2018-08-31T17:57:49.719Z,18.30
2018-08-31T18:00:18.837Z,18.20
2018-08-31T18:02:49.400Z,18.10
2018-08-31T18:05:19.644Z,18.10
2018-08-31T18:07:48.558Z,18.00
2018-08-31T18:10:17.150Z,17.90
2018-08-31T18:12:48.217Z,17.80
2018-08-31T18:15:17.212Z,17.80
2018-08-31T18:17:48.473Z,17.70
2018-08-31T18:20:17.384Z,17.60
2018-08-31T18:22:46.564Z,17.50
2018-08-31T18:25:15.378Z,17.40
2018-08-31T18:27:44.016Z,17.40
2018-08-31T18:30:12.638Z,17.20
2018-08-31T18:32:41.507Z,17.10
2018-08-31T18:35:12.036Z,17.10
2018-08-31T18:37:43.188Z,17.10
2018-08-31T18:40:12.329Z,17.00
2018-08-31T18:42:41.295Z,16.90
2018-08-31T18:45:10.289Z,16.80
2018-08-31T18:47:39.481Z,16.70
2018-08-31T18:50:08.624Z,16.60
2018-08-31T18:52:37.975Z,16.50
2018-08-31T18:55:07.823Z,16.40
2018-08-31T18:57:37.909Z,16.40
2018-08-31T19:00:08.962Z,16.40
2018-08-31T19:02:37.858Z,16.30
2018-08-31T19:05:06.853Z,16.30
2018-08-31T19:07:35.691Z,16.20
2018-08-31T19:10:04.513Z,16.20
2018-08-31T19:12:33.688Z,16.10
2018-08-31T19:15:02.288Z,16.00
2018-08-31T19:17:30.896Z,16.00
2018-08-31T19:19:59.593Z,15.90
2018-08-31T19:22:28.459Z,15.80
2018-08-31T19:24:57.069Z,15.80
2018-08-31T19:27:25.712Z,15.70
2018-08-31T19:29:54.299Z,15.70
2018-08-31T19:32:24.120Z,15.60
2018-08-31T19:34:53.193Z,15.50
2018-08-31T19:37:22.383Z,15.50
2018-08-31T19:39:50.985Z,15.50
2018-08-31T19:42:19.612Z,15.40
2018-08-31T19:44:48.224Z,15.40
2018-08-31T19:47:16.771Z,15.40
2018-08-31T19:49:45.394Z,15.30
2018-08-31T19:52:13.953Z,15.30
2018-08-31T19:54:42.597Z,15.30
2018-08-31T19:57:11.118Z,15.20
2018-08-31T19:59:39.849Z,15.20
2018-08-31T20:02:08.469Z,15.10
2018-08-31T20:04:37.052Z,15.10
2018-08-31T20:07:05.751Z,15.10
2018-08-31T20:09:34.836Z,15.00
2018-08-31T20:12:04.272Z,15.00
2018-08-31T20:14:32.829Z,15.00
2018-08-31T20:17:01.585Z,15.00
2018-08-31T20:19:30.189Z,15.00
2018-08-31T20:21:59.044Z,15.00
2018-08-31T20:24:27.599Z,14.90
2018-08-31T20:26:56.385Z,14.90
2018-08-31T20:29:25.503Z,14.90
2018-08-31T20:31:54.063Z,14.90
2018-08-31T20:34:22.620Z,14.80
2018-08-31T20:36:51.246Z,14.70
2018-08-31T20:39:20.141Z,14.70
2018-08-31T20:41:48.809Z,14.60
2018-08-31T20:44:17.363Z,14.60
2018-08-31T20:46:46.292Z,14.60
2018-08-31T20:49:15.356Z,14.60
2018-08-31T20:51:44.016Z,14.60
2018-08-31T20:54:12.658Z,14.60
2018-08-31T20:56:41.276Z,14.50
2018-08-31T20:59:09.812Z,14.50
2018-08-31T21:01:38.511Z,14.40
2018-08-31T21:04:07.171Z,14.40
2018-08-31T21:06:35.850Z,14.30
2018-08-31T21:09:06.012Z,14.30
2018-08-31T21:11:35.367Z,14.30
2018-08-31T21:14:03.887Z,14.20
2018-08-31T21:16:33.083Z,14.20
2018-08-31T21:19:01.759Z,14.20
2018-08-31T21:21:30.737Z,14.20
2018-08-31T21:23:59.741Z,14.20
2018-08-31T21:26:29.299Z,14.20
2018-08-31T21:28:58.240Z,14.10
2018-08-31T21:31:26.885Z,14.10
2018-08-31T21:33:55.538Z,14.10
2018-08-31T21:36:24.130Z,14.10
2018-08-31T21:38:52.965Z,14.00
2018-08-31T21:41:22.240Z,14.00
2018-08-31T21:43:50.804Z,14.00
2018-08-31T21:46:19.904Z,14.00
2018-08-31T21:48:48.527Z,13.90
2018-08-31T21:51:17.225Z,13.80
2018-08-31T21:53:46.036Z,13.80
2018-08-31T21:56:14.604Z,13.60
2018-08-31T21:58:43.433Z,13.60
2018-08-31T22:01:17.861Z,13.60
2018-08-31T22:03:47.152Z,13.50
2018-08-31T22:06:15.798Z,13.50
2018-08-31T22:08:44.425Z,13.40
2018-08-31T22:11:12.993Z,13.30
2018-08-31T22:13:42.563Z,13.20
2018-08-31T22:16:12.026Z,13.20
2018-08-31T22:18:40.647Z,13.10
2018-08-31T22:21:09.176Z,13.10
2018-08-31T22:23:38.067Z,13.00
2018-08-31T22:26:06.709Z,13.10
2018-08-31T22:28:35.763Z,13.00
2018-08-31T22:31:04.943Z,13.00
2018-08-31T22:33:33.657Z,13.00
2018-08-31T22:36:02.271Z,13.00
2018-08-31T22:38:30.864Z,13.00
2018-08-31T22:40:59.845Z,12.90
2018-08-31T22:43:49.148Z,12.90
2018-08-31T22:46:18.254Z,12.90
2018-08-31T22:48:47.196Z,12.90
2018-08-31T22:51:15.840Z,12.80
2018-08-31T22:53:44.711Z,12.80
2018-08-31T22:56:13.301Z,12.80
2018-08-31T22:58:41.850Z,12.80
2018-08-31T23:01:10.527Z,12.80
2018-08-31T23:03:39.578Z,12.70
2018-08-31T23:06:08.242Z,12.70
2018-08-31T23:08:37.234Z,12.70
2018-08-31T23:11:09.356Z,12.70
2018-08-31T23:13:40.054Z,12.60
2018-08-31T23:16:08.744Z,12.60
2018-08-31T23:18:37.345Z,12.60
2018-08-31T23:21:06.613Z,12.50
2018-08-31T23:23:40.735Z,12.40
2018-08-31T23:26:09.348Z,12.40
2018-08-31T23:28:38.235Z,12.50
2018-08-31T23:31:07.395Z,12.50
2018-08-31T23:33:36.805Z,12.50
2018-08-31T23:36:05.717Z,12.50
2018-08-31T23:38:35.154Z,12.50
2018-08-31T23:41:03.864Z,12.50
2018-08-31T23:43:32.620Z,12.50
2018-08-31T23:46:02.464Z,12.40
2018-08-31T23:48:31.292Z,12.40
2018-08-31T23:50:59.976Z,12.30
2018-08-31T23:53:28.636Z,12.30
2018-08-31T23:55:57.204Z,12.30
2018-08-31T23:58:25.736Z,12.20
